Terminal Aerodrome Forecast
Issued by NWS

Home | Current Version | Previous Version | Text Only | Print | Product List | Glossary On
Versions: 1 2 3 4 5 6 7 8 9 10 11 12 13 14 15 16 17 18 19 20 21 22 23 24 25 26 27 28 29
000
FTUS41 KBUF 030536
TAFIAG
TAF
KIAG 030536Z 0306/0406 00000KT 6SM BR FEW250
     FM031200 VRB05KT P6SM SCT070
     FM032200 VRB03KT P6SM BKN140
     FM040200 22004KT P6SM SCT070=

USA.gov is the U.S. government's official web portal to all federal, state and local government web resources and services.